The Florida Keys Marathon Airport
KMTH : now visible

Airfield :











YOU CAN JOIN US ON...

 
LOGIN :

Register | Disclaimer

   EN    FR    IT 

 









Legend :    VFR   Marginal VFR   IFR   Intensive IFR   Very Intensive IFR
Visi :
Ceiling :
>= 8 km
>= 3000ft
5 to 8 km
1000 to 3000 ft
1500m to 5 km
500 to 1000 ft
800 to 1500m
200 to 500 ft
< 800m
< 200 ft
Symbols :   Thunderstorms  Fog  Heavy snow  Heavy precipitations  Wind > 20 kt







- Airport Elevation : 5 ft


KMTH - The Florida Keys Marathon

CURRENT METAR :
  • 252253Z AUTO 08007KT 10SM CLR 29/20 A2995 RMK AO2 SLP141 T02890200

EXPIRED METARs :
  • 252153Z AUTO 15006KT 10SM CLR 30/21 A2996 RMK AO2 SLP145 T03000211
  • 252053Z AUTO 15006KT 10SM CLR 31/21 A2996 RMK AO2 SLP144 T03060211 56014

TAF KMTH
Valid from the 26 at 00:00 until the 27 at 00:00 UTC


252338Z 2600/2624 10007KT P6SM FEW060 SCT250
FM261200 19012KT P6SM SCT060 SCT250
FM261600 23011KT P6SM SCT015 BKN100
FM262100 28012G17KT P6SM SCT020 BKN100
KZMA FIR / North America



MET'MAP, your aeronautical weather chart ! - Copyright ORBIFLY December 2007 - Disclaimer

ORBIFLY MET'MAP TEAM :

Programming & Development : Alexandra Zaïnal
Concept & Development : Baudouin d'Aumeries
Co-Development & Prog : Marc-Olivier Méhu
Technical & hardware support : Manuel Goepfert

Contact : metmap@orbifly.com




SOURCES & CREDITS :

   NOAA       Earth
Advisory